createdAt,value
2018-12-24T00:00:02.067Z,1000.78
2018-12-24T00:05:01.388Z,1000.88
2018-12-24T00:10:02.126Z,1000.88
2018-12-24T00:15:01.430Z,1001.08
2018-12-24T00:20:01.776Z,1001.19
2018-12-24T00:25:02.016Z,1001.28
2018-12-24T00:30:01.363Z,1001.32
2018-12-24T00:35:01.809Z,1001.41
2018-12-24T00:40:02.087Z,1001.52
2018-12-24T00:45:01.367Z,1001.75
2018-12-24T00:50:01.707Z,1002.1
2018-12-24T00:55:01.991Z,1002.11
2018-12-24T01:00:02.221Z,1002.24
2018-12-24T01:05:01.556Z,1002.43
2018-12-24T01:10:01.925Z,1002.54
2018-12-24T01:15:02.160Z,1002.63
2018-12-24T01:20:01.467Z,1002.88
2018-12-24T01:25:01.708Z,1003.12
2018-12-24T01:30:02.013Z,1003.18
2018-12-24T01:35:01.337Z,1003.34
2018-12-24T01:40:01.701Z,1003.47
2018-12-24T01:45:01.979Z,1003.66
2018-12-24T01:50:02.295Z,1003.88
2018-12-24T01:55:01.637Z,1004.03
2018-12-24T02:00:02.026Z,1004.03
2018-12-24T02:05:01.496Z,1004.11
2018-12-24T02:10:02.228Z,1004.19
2018-12-24T02:15:01.526Z,1004.33
2018-12-24T02:20:01.844Z,1004.37
2018-12-24T02:25:02.099Z,1004.54
2018-12-24T02:30:01.404Z,1004.6
2018-12-24T02:35:01.738Z,1004.69
2018-12-24T02:40:02.023Z,1004.86
2018-12-24T02:45:01.355Z,1004.84
2018-12-24T02:50:01.647Z,1004.9
2018-12-24T02:55:01.932Z,1005.03
2018-12-24T03:00:02.216Z,1005.14
2018-12-24T03:05:01.550Z,1005.23
2018-12-24T03:10:01.866Z,1005.31
2018-12-24T03:15:02.159Z,1005.39
2018-12-24T03:20:01.568Z,1005.45
2018-12-24T03:25:01.854Z,1005.44
2018-12-24T03:30:02.163Z,1005.64
2018-12-24T03:35:01.317Z,1005.73
2018-12-24T03:40:01.599Z,1005.76
2018-12-24T03:45:01.891Z,1005.83
2018-12-24T03:50:02.188Z,1005.84
2018-12-24T03:55:01.498Z,1005.9
2018-12-24T04:00:01.841Z,1005.97
2018-12-24T04:05:02.106Z,1006.06
2018-12-24T04:10:01.402Z,1006.17
2018-12-24T04:15:01.729Z,1006.3
2018-12-24T04:20:02.034Z,1006.45
2018-12-24T04:25:01.308Z,1006.49
2018-12-24T04:30:01.744Z,1006.59
2018-12-24T04:35:02.053Z,1006.77
2018-12-24T04:40:01.379Z,1006.89
2018-12-24T04:45:01.705Z,1006.92
2018-12-24T04:50:02.014Z,1007.08
2018-12-24T04:55:01.315Z,1007.15
2018-12-24T05:00:01.660Z,1007.29
2018-12-24T05:05:01.973Z,1007.43
2018-12-24T05:10:02.207Z,1007.63
2018-12-24T05:15:01.466Z,1007.76
2018-12-24T05:20:01.802Z,1007.86
2018-12-24T05:25:02.098Z,1007.98
2018-12-24T05:30:01.384Z,1008.04
2018-12-24T05:35:01.667Z,1008.19
2018-12-24T05:40:02.399Z,1008.36
2018-12-24T05:45:01.631Z,1008.46
2018-12-24T05:50:01.874Z,1008.49
2018-12-24T05:55:02.126Z,1008.64
2018-12-24T06:00:01.429Z,1008.75
2018-12-24T06:05:01.833Z,1008.88
2018-12-24T06:10:02.079Z,1009.02
2018-12-24T06:15:01.351Z,1009.1
2018-12-24T06:20:01.689Z,1009.18
2018-12-24T06:25:02.003Z,1009.38
2018-12-24T06:30:01.302Z,1009.5
2018-12-24T06:35:01.624Z,1009.68
2018-12-24T06:40:01.940Z,1009.68
2018-12-24T06:45:02.174Z,1009.8
2018-12-24T06:50:01.449Z,1009.87
2018-12-24T06:55:01.749Z,1009.94
2018-12-24T07:00:02.061Z,1010.02
2018-12-24T07:05:01.389Z,1010.07
2018-12-24T07:10:01.670Z,1010.16
2018-12-24T07:15:01.976Z,1010.36
2018-12-24T07:20:02.251Z,1010.44
2018-12-24T07:25:01.528Z,1010.56
2018-12-24T07:30:01.839Z,1010.64
2018-12-24T07:35:02.091Z,1010.72
2018-12-24T07:40:01.414Z,1010.79
2018-12-24T07:45:01.696Z,1010.87
2018-12-24T07:50:01.958Z,1010.95
2018-12-24T07:55:02.219Z,1011.01
2018-12-24T08:00:01.524Z,1011.14
2018-12-24T08:05:01.804Z,1011.14
2018-12-24T08:10:02.070Z,1011.18
2018-12-24T08:15:01.404Z,1011.23
2018-12-24T08:20:01.704Z,1011.36
2018-12-24T08:25:01.984Z,1011.46
2018-12-24T08:30:02.249Z,1011.57
2018-12-24T08:35:01.555Z,1011.64
2018-12-24T08:40:01.865Z,1011.71
2018-12-24T08:45:02.145Z,1011.83
2018-12-24T08:50:01.476Z,1011.97
2018-12-24T08:55:01.773Z,1012.2
2018-12-24T09:00:02.053Z,1012.31
2018-12-24T09:05:01.362Z,1012.44
2018-12-24T09:10:01.688Z,1012.52
2018-12-24T09:15:02.010Z,1012.64
2018-12-24T09:20:01.322Z,1012.8
2018-12-24T09:25:01.600Z,1012.94
2018-12-24T09:30:01.919Z,1013.05
2018-12-24T09:35:02.292Z,1013.14
2018-12-24T09:40:01.589Z,1013.17
2018-12-24T09:45:01.857Z,1013.32
2018-12-24T09:50:02.135Z,1013.36
2018-12-24T09:55:01.439Z,1013.54
2018-12-24T10:00:01.748Z,1013.6
2018-12-24T10:05:02.009Z,1013.8
2018-12-24T10:10:01.347Z,1013.91
2018-12-24T10:15:08.439Z,1013.99
2018-12-24T10:20:01.760Z,1014.04
2018-12-24T10:25:02.027Z,1014.1
2018-12-24T10:30:01.337Z,1014.12
2018-12-24T10:35:01.623Z,1014.14
2018-12-24T10:40:01.923Z,1014.14
2018-12-24T10:45:02.193Z,1014.18
2018-12-24T10:50:01.499Z,1014.16
2018-12-24T10:55:01.794Z,1014.17
2018-12-24T11:00:02.069Z,1014.18
2018-12-24T11:05:01.415Z,1014.21
2018-12-24T11:10:01.699Z,1014.21
2018-12-24T11:15:01.978Z,1014.25
2018-12-24T11:20:02.238Z,1014.15
2018-12-24T11:25:01.534Z,1014.21
2018-12-24T11:30:01.850Z,1014.22
2018-12-24T11:35:02.221Z,1014.23
2018-12-24T11:40:01.583Z,1014.21
2018-12-24T11:45:01.887Z,1014.29
2018-12-24T11:50:02.140Z,1014.36
2018-12-24T11:55:01.438Z,1014.33
2018-12-24T12:00:01.770Z,1014.3
2018-12-24T12:05:02.039Z,1014.32
2018-12-24T12:10:01.346Z,1014.26
2018-12-24T12:15:01.661Z,1014.27
2018-12-24T12:20:02.167Z,1014.27
2018-12-24T12:25:01.632Z,1014.37
2018-12-24T12:30:01.943Z,1014.38
2018-12-24T12:35:02.238Z,1014.48
2018-12-24T12:40:01.542Z,1014.45
2018-12-24T12:45:01.869Z,1014.47
2018-12-24T12:50:02.141Z,1014.59
2018-12-24T12:55:01.432Z,1014.75
2018-12-24T13:00:01.782Z,1014.84
2018-12-24T13:05:02.070Z,1014.99
2018-12-24T13:10:01.388Z,1015.04
2018-12-24T13:15:01.648Z,1015.05
2018-12-24T13:20:01.964Z,1015.23
2018-12-24T13:25:02.199Z,1015.3
2018-12-24T13:30:01.501Z,1015.31
2018-12-24T13:35:01.830Z,1015.37
2018-12-24T13:40:02.084Z,1015.36
2018-12-24T13:45:01.384Z,1015.49
2018-12-24T13:50:01.682Z,1015.51
2018-12-24T13:55:01.949Z,1015.57
2018-12-24T14:00:02.179Z,1015.6
2018-12-24T14:05:01.485Z,1015.66
2018-12-24T14:10:01.791Z,1015.74
2018-12-24T14:15:02.054Z,1015.8
2018-12-24T14:20:01.537Z,1015.94
2018-12-24T14:25:01.863Z,1016.01
2018-12-24T14:30:02.125Z,1016.09
2018-12-24T14:35:01.478Z,1016.18
2018-12-24T14:40:01.812Z,1016.26
2018-12-24T14:45:02.113Z,1016.32
2018-12-24T14:50:01.454Z,1016.41
2018-12-24T14:55:01.805Z,1016.45
2018-12-24T15:00:02.128Z,1016.58
2018-12-24T15:05:01.418Z,1016.7
2018-12-24T15:10:01.720Z,1016.87
2018-12-24T15:15:02.003Z,1016.93
2018-12-24T15:20:01.292Z,1017.02
2018-12-24T15:25:01.594Z,1017
2018-12-24T15:30:01.900Z,1017.09
2018-12-24T15:35:02.165Z,1017.16
2018-12-24T15:40:01.457Z,1017.15
2018-12-24T15:45:01.723Z,1017.26
2018-12-24T15:50:01.998Z,1017.4
2018-12-24T15:55:01.299Z,1017.32
2018-12-24T16:00:01.734Z,1017.35
2018-12-24T16:05:02.034Z,1017.34
2018-12-24T16:10:01.327Z,1017.32
2018-12-24T16:15:01.609Z,1017.38
2018-12-24T16:20:01.940Z,1017.32
2018-12-24T16:25:02.191Z,1017.29
2018-12-24T16:30:01.493Z,1017.4
2018-12-24T16:35:01.839Z,1017.26
2018-12-24T16:40:02.473Z,1017.32
2018-12-24T16:45:03.545Z,1017.35
2018-12-24T16:50:01.884Z,1017.31
2018-12-24T16:55:02.180Z,1017.4
2018-12-24T17:00:01.531Z,1017.27
2018-12-24T17:05:01.817Z,1017.28
2018-12-24T17:10:02.088Z,1017.28
2018-12-24T17:15:01.412Z,1017.45
2018-12-24T17:20:01.753Z,1017.52
2018-12-24T17:25:02.060Z,1017.54
2018-12-24T17:30:01.353Z,1017.66
2018-12-24T17:35:01.668Z,1017.65
2018-12-24T17:40:01.997Z,1017.58
2018-12-24T17:45:01.290Z,1017.61
2018-12-24T17:50:01.592Z,1017.6
2018-12-24T17:55:01.914Z,1018.02
2018-12-24T18:00:02.205Z,1018.01
2018-12-24T18:05:01.535Z,1018.08
2018-12-24T18:10:01.833Z,1018.07
2018-12-24T18:15:02.120Z,1018.16
2018-12-24T18:20:01.416Z,1018.28
2018-12-24T18:25:01.719Z,1018.45
2018-12-24T18:30:02.018Z,1018.48
2018-12-24T18:35:01.364Z,1018.44
2018-12-24T18:40:01.650Z,1018.45
2018-12-24T18:45:01.949Z,1018.57
2018-12-24T18:50:02.228Z,1018.83
2018-12-24T18:55:01.521Z,1018.77
2018-12-24T19:00:01.818Z,1018.84
2018-12-24T19:05:02.069Z,1019.16
2018-12-24T19:10:01.387Z,1019.14
2018-12-24T19:15:01.701Z,1019.2
2018-12-24T19:20:02.009Z,1019.35
2018-12-24T19:25:01.303Z,1019.43
2018-12-24T19:30:01.630Z,1019.25
2018-12-24T19:35:01.929Z,1019.27
2018-12-24T19:40:02.187Z,1019.27
2018-12-24T19:45:01.545Z,1019.35
2018-12-24T19:50:01.860Z,1019.5
2018-12-24T19:55:02.125Z,1019.55
2018-12-24T20:00:01.437Z,1019.59
2018-12-24T20:05:01.737Z,1019.51
2018-12-24T20:10:02.055Z,1019.5
2018-12-24T20:15:01.342Z,1019.5
2018-12-24T20:20:01.668Z,1019.51
2018-12-24T20:25:01.984Z,1019.44
2018-12-24T20:30:02.244Z,1019.41
2018-12-24T20:35:01.581Z,1019.48
2018-12-24T20:40:01.879Z,1019.38
2018-12-24T20:45:02.140Z,1019.45
2018-12-24T20:50:01.643Z,1019.48
2018-12-24T20:55:01.977Z,1019.52
2018-12-24T21:00:02.217Z,1019.53
2018-12-24T21:05:01.539Z,1019.51
2018-12-24T21:10:01.862Z,1019.62
2018-12-24T21:15:01.384Z,1019.66
2018-12-24T21:20:01.693Z,1019.68
2018-12-24T21:25:01.971Z,1019.67
2018-12-24T21:30:02.240Z,1019.61
2018-12-24T21:35:01.564Z,1019.6
2018-12-24T21:40:01.866Z,1019.57
2018-12-24T21:45:02.129Z,1019.54
2018-12-24T21:50:01.428Z,1019.55
2018-12-24T21:55:01.729Z,1019.48
2018-12-24T22:00:02.011Z,1019.49
2018-12-24T22:05:01.328Z,1019.49
2018-12-24T22:10:01.648Z,1019.51
2018-12-24T22:15:01.946Z,1019.54
2018-12-24T22:20:02.186Z,1019.55
2018-12-24T22:25:01.452Z,1019.5
2018-12-24T22:30:01.772Z,1019.46
2018-12-24T22:35:02.074Z,1019.46
2018-12-24T22:40:01.375Z,1019.5
2018-12-24T22:45:01.651Z,1019.56
2018-12-24T22:50:01.987Z,1019.59
2018-12-24T22:55:02.259Z,1019.55
2018-12-24T23:00:01.573Z,1019.6
2018-12-24T23:05:01.839Z,1019.69
2018-12-24T23:10:02.126Z,1019.65
2018-12-24T23:15:01.553Z,1019.61
2018-12-24T23:20:01.862Z,1019.61
2018-12-24T23:25:02.124Z,1019.58
2018-12-24T23:30:01.420Z,1019.55
2018-12-24T23:35:01.745Z,1019.54
2018-12-24T23:40:02.016Z,1019.53
2018-12-24T23:45:01.300Z,1019.51
2018-12-24T23:50:01.596Z,1019.56
2018-12-24T23:55:02.501Z,1019.59
